Weather observations for the past three days for
Eagle Lake
| Date | Time (cdt) | Wind (mph) | Vis. (mi.) | Weather | Sky Cond. | Temperature (ºF) | Relative Humidity | Wind Chill (°F) | Heat Index (°F) | Pressure | Precipitation (in) | ||||||
|---|---|---|---|---|---|---|---|---|---|---|---|---|---|---|---|---|---|
| Air | Dwpt | 6 hour | altimeter (in) | sea level (mb) | 1 hr | 3 hr | 6 hr | ||||||||||
| Max. | Min. | ||||||||||||||||
| 09 | 09:55 | E 3 | 7.00 | Partly Cloudy | SCT005 | 73.9 | 73.2 | 98% | 29.84 | 0.0 | |||||||
| 09 | 09:35 | Calm | 5.00 | Fog/Mist | SCT003 | 73.4 | 73 | 99% | 29.83 | 0.0 | |||||||
| 09 | 09:15 | NE 3 | 2.50 | Fog/Mist | BKN003 | 72.9 | 72.7 | 99% | 29.81 | 0.0 | |||||||
| 09 | 08:55 | Calm | 3.00 | Fog/Mist | BKN003 | 72.7 | 72.7 | 100% | 29.82 | 0.0 | |||||||
| 09 | 08:35 | Calm | 2.00 | Fog/Mist | BKN003 OVC038 | 72.5 | 72.5 | 100% | 29.83 | 0.0 | |||||||
| 09 | 08:15 | NE 3 | 3.00 | Fog/Mist | SCT003 OVC038 | 72.5 | 72.5 | 100% | 29.85 | 0.0 | |||||||
| 09 | 07:55 | Calm | 2.00 | Fog/Mist | OVC034 | 72.5 | 72.5 | 100% | 29.85 | 0.0 | |||||||
| 09 | 07:35 | Calm | 2.50 | Fog/Mist | OVC030 | 72 | 72 | 100% | 29.86 | 0.0 | |||||||
| 09 | 07:15 | Calm | 1.75 | Fog/Mist | SCT013 OVC030 | 71.8 | 71.8 | 100% | 29.84 | 0.0 | |||||||
| 09 | 06:55 | Calm | 2.50 | Fog/Mist | BKN013 BKN030 OVC070 | 71.8 | 71.8 | 72.1 | 71.2 | 100% | 29.85 | 0.0 | |||||
| 09 | 06:35 | Calm | 2.50 | Fog/Mist | SCT015 OVC070 | 71.4 | 71.4 | 100% | 29.83 | 0.0 | |||||||
| 09 | 06:15 | Calm | 3.00 | Fog/Mist | OVC013 | 72 | 72 | 100% | 29.84 | 0.0 | |||||||
| 09 | 05:55 | Calm | 3.00 | Fog/Mist | OVC011 | 72 | 72 | 100% | 29.84 | 0.0 | |||||||
| 09 | 05:35 | N 3 | 3.00 | Fog/Mist | OVC007 | 72 | 72 | 100% | 29.83 | 0.0 | |||||||
| 09 | 05:15 | Calm | 3.00 | Fog/Mist | OVC005 | 72 | 72 | 100% | 29.82 | 0.0 | |||||||
| 09 | 04:55 | Calm | 2.50 | Fog/Mist | OVC005 | 72.1 | 72 | 99% | 29.82 | 0.0 | |||||||
| 09 | 04:35 | Calm | 2.50 | Fog/Mist | OVC005 | 71.8 | 71.8 | 100% | 29.81 | 0.0 | |||||||
| 09 | 04:15 | NE 3 | 2.50 | Fog/Mist | OVC005 | 72 | 72 | 100% | 29.81 | 0.0 | |||||||
| 09 | 03:55 | Calm | 2.50 | Fog/Mist | OVC003 | 72 | 72 | 100% | 29.81 | 0.0 | |||||||
| 09 | 03:35 | Calm | 2.50 | Fog/Mist | OVC003 | 72 | 72 | 100% | 29.82 | 0.0 | |||||||
| 09 | 02:55 | S 3 | 2.00 | Fog/Mist | OVC003 | 72.1 | 72 | 99% | 29.81 | 0.0 | |||||||
| 09 | 02:35 | S 7 | 1.25 | Fog/Mist | OVC003 | 72 | 72 | 100% | 29.81 | 0.0 | |||||||
| 09 | 02:15 | S 7 | 0.75 | Fog/Mist | OVC003 | 72 | 72 | 100% | 29.81 | 0.0 | |||||||
| 09 | 01:55 | SE 6 | 0.50 | Fog | OVC003 | 71.8 | 71.8 | 100% | 29.82 | 0.0 | |||||||
| 09 | 01:35 | SE 6 | 0.25 | Fog | OVC003 | 71.8 | 71.6 | 99% | 29.83 | 0.0 | |||||||
| 09 | 01:15 | SE 5 | 0.25 | Fog | OVC003 | 71.8 | 71.6 | 99% | 29.84 | 0.0 | |||||||
| 09 | 00:55 | SE 5 | 0.50 | Fog | OVC003 | 71.8 | 71.6 | 72.9 | 70.9 | 99% | 29.84 | 0.0 | |||||
| 09 | 00:35 | SE 5 | 0.50 | Fog | OVC003 | 71.8 | 71.6 | 99% | 29.84 | 0.0 | |||||||
| 09 | 00:15 | SE 6 | 1.00 | Fog/Mist | OVC003 | 71.8 | 71.6 | 99% | 29.84 | 0.0 | |||||||
| 08 | 23:55 | SE 5 | 2.50 | Fog/Mist | OVC003 | 71.8 | 71.6 | 99% | 29.84 | 0.0 | |||||||
| 08 | 23:35 | SE 7 | 4.00 | Fog/Mist | OVC005 | 71.8 | 71.6 | 99% | 29.84 | 0.0 | |||||||
| 08 | 23:15 | SE 5 | 4.00 | Fog/Mist | OVC005 | 71.6 | 70.9 | 98% | 29.83 | 0.0 | |||||||
| 08 | 22:55 | SE 5 | 4.00 | Fog/Mist | OVC005 | 71.2 | 70.7 | 98% | 29.84 | 0.0 | |||||||
| 08 | 22:35 | E 3 | 4.00 | Fog/Mist | OVC007 | 71.2 | 70.5 | 98% | 29.83 | 0.0 | |||||||
| 08 | 22:15 | E 6 | 5.00 | Fog/Mist | OVC007 | 71.1 | 70.3 | 98% | 29.83 | 0.0 | |||||||
| 08 | 21:55 | E 5 | 4.00 | Fog/Mist | OVC009 | 71.2 | 70.7 | 98% | 29.81 | 0.0 | |||||||
| 08 | 21:35 | E 3 | 4.00 | Fog/Mist | BKN009 BKN016 BKN042 | 70.9 | 70.2 | 98% | 29.82 | 0.0 | |||||||
| 08 | 21:15 | E 5 | 4.00 | Fog/Mist | SCT009 BKN014 BKN021 | 71.2 | 70.3 | 97% | 29.81 | 0.0 | |||||||
| 08 | 20:55 | E 5 | 4.00 | Fog/Mist | SCT009 BKN014 OVC020 | 71.6 | 70.3 | 96% | 29.8 | 0.0 | |||||||
| 08 | 20:35 | E 6 | 4.00 | Fog/Mist | OVC010 | 71.6 | 70.5 | 96% | 29.8 | 0.0 | |||||||
| 08 | 20:15 | E 6 | 4.00 | Fog/Mist | BKN008 OVC012 | 71.8 | 70.7 | 96% | 29.8 | 0.0 | |||||||
| 08 | 19:35 | E 7 | 4.00 | Fog/Mist | OVC008 | 72.3 | 70.7 | 95% | 29.8 | 0.0 | |||||||
| 08 | 19:15 | E 6 | 4.00 | Fog/Mist | OVC008 | 72.5 | 70.5 | 94% | 29.79 | 0.0 | |||||||
| 08 | 18:55 | E 6 | 5.00 | Fog/Mist | OVC008 | 72.9 | 70.9 | 73.9 | 68.2 | 94% | 29.79 | 0.0 | |||||
| 08 | 18:35 | E 7 | 5.00 | Fog/Mist | OVC008 | 73.2 | 70.9 | 92% | 29.8 | 0.0 | |||||||
| 08 | 18:15 | E 8 | 10.00 | Overcast | OVC008 | 73.8 | 71.1 | 91% | 29.79 | 0.0 | |||||||
| 08 | 17:55 | E 7 | 10.00 | Overcast | OVC008 | 73.6 | 70.9 | 91% | 29.8 | 0.0 | |||||||
| 08 | 17:15 | E 3 | 10.00 | Overcast | OVC008 | 73.4 | 70.2 | 90% | 29.8 | 0.0 | |||||||
| 08 | 16:55 | E 5 | 10.00 | Overcast | OVC008 | 73.4 | 69.8 | 89% | 29.81 | 0.0 | |||||||
| 08 | 16:35 | E 6 | 10.00 | Overcast | OVC008 | 73.2 | 70 | 90% | 29.8 | 0.0 | |||||||
| 08 | 16:15 | E 7 | 10.00 | Overcast | OVC008 | 72 | 69.1 | 91% | 29.81 | 0.0 | |||||||
| 08 | 15:55 | E 5 | 10.00 | Light Drizzle | OVC008 | 72.3 | 68.9 | 89% | 29.82 | 0.0 | |||||||
| 08 | 15:35 | E 5 | 7.00 | Overcast | OVC008 | 71.2 | 68.5 | 91% | 29.84 | 0.0 | |||||||
| 08 | 15:15 | E 5 | 10.00 | Overcast | OVC008 | 70.7 | 68.2 | 92% | 29.84 | 0.0 | |||||||
| 08 | 14:55 | E 6 | 10.00 | Overcast | OVC008 | 70.5 | 67.5 | 90% | 29.85 | 0.0 | |||||||
| 08 | 14:35 | E 6 | 7.00 | Overcast | OVC008 | 70 | 67.3 | 91% | 29.85 | 0.0 | |||||||
| 08 | 14:15 | E 7 | 7.00 | Overcast | OVC008 | 69.1 | 66.9 | 93% | 29.86 | 0.0 | |||||||
| 08 | 13:55 | E 5 | 7.00 | Rain | OVC008 | 68.9 | 66.9 | 93% | 29.87 | 0.0 | |||||||
| 08 | 13:35 | NE 5 | 10.00 | Overcast | OVC008 | 69.3 | 66.2 | 90% | 29.87 | 0.0 | |||||||
| 08 | 13:15 | E 7 | 10.00 | Overcast | OVC008 | 68.9 | 66.2 | 91% | 29.86 | 0.0 | |||||||
| 08 | 12:55 | NE 6 | 10.00 | Overcast | BKN008 OVC030 | 68.5 | 65.8 | 68.5 | 64.4 | 91% | 29.87 | 0.0 | |||||
| 08 | 12:35 | E 7 | 7.00 | Overcast | SCT008 OVC030 | 67.5 | 65.7 | 94% | 29.88 | 0.0 | |||||||
| 08 | 12:15 | E 6 | 7.00 | Light Drizzle | SCT008 SCT020 OVC030 | 67.3 | 65.5 | 94% | 29.89 | 0.0 | |||||||
| 08 | 11:55 | E 5 | 7.00 | Light Drizzle | SCT010 SCT021 OVC030 | 66.9 | 65.3 | 95% | 29.9 | 0.0 | |||||||
| 08 | 11:35 | E 5 | 5.00 | Light Rain | BKN010 OVC026 | 66.7 | 64.8 | 93% | 29.91 | 0.0 | |||||||
| 08 | 11:15 | NE 6 | 4.00 | Fog/Mist | BKN010 OVC020 | 67.1 | 64 | 90% | 29.92 | 0.0 | |||||||
| 08 | 10:55 | NE 6 | 10.00 | Light Rain | SCT010 OVC020 | 67.8 | 64.2 | 88% | 29.91 | 0.0 | |||||||
| 08 | 10:35 | NE 6 | 10.00 | Overcast | SCT011 OVC020 | 66.7 | 63.5 | 89% | 29.9 | 0.0 | |||||||
| 08 | 10:15 | NE 9 | 10.00 | Overcast | BKN011 OVC018 | 65.7 | 63.3 | 92% | 29.91 | 0.0 | |||||||
| 08 | 09:55 | N 6 | 10.00 | Overcast | SCT011 OVC018 | 65.5 | 62.8 | 91% | 29.91 | 0.0 | |||||||
| 08 | 09:35 | NE 7 | 10.00 | Overcast | SCT011 OVC018 | 65.3 | 62.6 | 91% | 29.91 | 0.0 | |||||||
| 08 | 09:15 | N 6 | 10.00 | Overcast | SCT011 OVC018 | 64.9 | 62.6 | 92% | 29.92 | 0.0 | |||||||
| 08 | 08:55 | NE 6 | 10.00 | Light Rain | SCT010 OVC018 | 64.8 | 62.6 | 93% | 29.91 | 0.0 | |||||||
| 08 | 08:15 | NE 3 | 10.00 | Overcast | SCT011 OVC018 | 64.6 | 61.7 | 90% | 29.91 | 0.0 | |||||||
| 08 | 07:35 | N 3 | 10.00 | Mostly Cloudy | BKN009 BKN027 | 64.4 | 61.7 | 91% | 29.92 | 0.0 | |||||||
| 08 | 07:15 | Calm | 10.00 | Partly Cloudy | SCT012 SCT029 SCT045 | 64.4 | 61.7 | 91% | 29.91 | 0.0 | |||||||
| 08 | 06:55 | E 3 | 10.00 | Overcast | BKN012 OVC029 | 64.8 | 61 | 65.3 | 63.5 | 88% | 29.92 | 0.0 | |||||
| 08 | 06:35 | NE 3 | 10.00 | Overcast | OVC012 | 64.8 | 60.8 | 87% | 29.93 | 0.0 | |||||||
| 08 | 06:15 | N 5 | 10.00 | Light Rain | OVC012 | 64.6 | 60.8 | 88% | 29.93 | 0.0 | |||||||
| 08 | 05:55 | N 5 | 10.00 | Overcast | OVC014 | 64.8 | 60.8 | 87% | 29.92 | 0.0 | |||||||
| 08 | 05:35 | E 3 | 10.00 | Overcast | OVC014 | 64.4 | 59.9 | 85% | 29.9 | 0.0 | |||||||
| 08 | 05:15 | N 3 | 10.00 | Overcast | OVC014 | 63.9 | 59.2 | 85% | 29.92 | 0.0 | |||||||
| 08 | 04:55 | NE 7 | 10.00 | Overcast | OVC014 | 63.9 | 59 | 84% | 29.9 | 0.0 | |||||||
| 08 | 04:35 | NE 6 | 10.00 | Light Drizzle | OVC018 | 64 | 58.6 | 83% | 29.91 | 0.0 | |||||||
| 08 | 04:15 | NW 7 | 10.00 | Overcast | OVC018 | 64.2 | 59 | 83% | 29.92 | 0.0 | |||||||
| 08 | 03:55 | Calm | 10.00 | Overcast | OVC016 | 64 | 59.2 | 84% | 29.89 | 0.0 | |||||||
| 08 | 03:35 | NE 5 | 10.00 | Overcast | OVC016 | 64 | 58.5 | 82% | 29.91 | 0.0 | |||||||
| 08 | 03:15 | N 5 | 10.00 | Overcast | OVC018 | 64.4 | 58.5 | 81% | 29.9 | 0.0 | |||||||
| 08 | 02:35 | Calm | 10.00 | Overcast | OVC025 | 64.8 | 59 | 82% | 29.93 | 0.0 | |||||||
| 08 | 02:15 | Calm | 10.00 | Overcast | OVC025 | 64.8 | 59 | 82% | 29.94 | 0.0 | |||||||
| 08 | 01:55 | N 5 | 10.00 | Overcast | OVC025 | 64.8 | 59.2 | 82% | 29.94 | 0.0 | |||||||
| 08 | 01:35 | N 5 | 10.00 | Overcast | OVC025 | 64.9 | 59.4 | 82% | 29.94 | 0.0 | |||||||
| 08 | 01:15 | Calm | 10.00 | Overcast | OVC025 | 64.9 | 59.5 | 83% | 29.94 | 0.0 | |||||||
| 08 | 00:55 | Calm | 10.00 | Overcast | OVC025 | 64.8 | 59 | 72 | 63.9 | 82% | 29.92 | 0.0 | |||||
| 08 | 00:35 | NE 3 | 10.00 | Overcast | OVC025 | 64.8 | 58.6 | 81% | 29.92 | 0.0 | |||||||
| 08 | 00:15 | Calm | 10.00 | Overcast | OVC027 | 64.6 | 58.3 | 80% | 29.94 | 0.0 | |||||||
| 07 | 23:55 | N 5 | 10.00 | Overcast | OVC029 | 64.4 | 58.1 | 80% | 29.94 | 0.0 | |||||||
| 07 | 23:35 | N 6 | 10.00 | Overcast | OVC031 | 64.4 | 58.1 | 80% | 29.94 | 0.0 | |||||||
| 07 | 23:15 | N 6 | 10.00 | Mostly Cloudy | BKN031 | 64.4 | 58.1 | 80% | 29.94 | 0.0 | |||||||
| 07 | 22:55 | NE 3 | 10.00 | Partly Cloudy | SCT039 | 63.9 | 58.3 | 82% | 29.94 | 0.0 | |||||||
| 07 | 22:35 | N 3 | 10.00 | Fair | CLR | 64.2 | 58.1 | 81% | 29.93 | 0.0 | |||||||
| 07 | 21:55 | E 6 | 10.00 | Fair | CLR | 65.3 | 58.3 | 78% | 29.93 | 0.0 | |||||||
| 07 | 21:35 | N 5 | 10.00 | Fair | CLR | 65.5 | 57.7 | 76% | 29.95 | 0.0 | |||||||
| 07 | 21:15 | N 6 | 10.00 | Partly Cloudy | SCT043 | 65.7 | 58.5 | 78% | 29.94 | 0.0 | |||||||
| 07 | 20:55 | N 3 | 10.00 | Partly Cloudy | SCT043 | 66.4 | 58.3 | 75% | 29.94 | 0.0 | |||||||
| 07 | 20:35 | N 7 | 10.00 | Mostly Cloudy | BKN041 | 67.1 | 59 | 75% | 29.94 | 0.0 | |||||||
| 07 | 20:15 | N 7 | 10.00 | Overcast | OVC039 | 68.7 | 58.6 | 70% | 29.94 | 0.0 | |||||||
| 07 | 19:55 | N 7 | 10.00 | Overcast | OVC039 | 69.6 | 59.2 | 70% | 29.94 | 0.0 | |||||||
| 07 | 19:35 | N 5 | 10.00 | Overcast | OVC041 | 70.5 | 60.8 | 71% | 29.94 | 0.0 | |||||||
| 07 | 19:15 | N 8 | 10.00 | Overcast | OVC041 | 71.8 | 61.7 | 71% | 29.94 | 0.0 | |||||||
| 07 | 18:55 | N 7 | 10.00 | Overcast | OVC041 | 72.1 | 61.3 | 76.5 | 67.1 | 69% | 29.94 | 0.0 | |||||
| 07 | 18:35 | N 9 | 10.00 | Overcast | OVC039 | 72.9 | 61.9 | 69% | 29.94 | 0.0 | |||||||
| 07 | 18:15 | N 9 | 10.00 | Mostly Cloudy | BKN039 | 73.8 | 62.2 | 67% | 29.94 | 0.0 | |||||||
| 07 | 17:55 | N 10 | 10.00 | Fair | CLR | 74.3 | 62.8 | 67% | 29.94 | 0.0 | |||||||
| 07 | 17:35 | NE 9 | 10.00 | Fair | CLR | 75.2 | 62.6 | 65% | 77 | 29.93 | 0.0 | ||||||
| 07 | 17:15 | N 12 | 10.00 | Fair | CLR | 75.2 | 62.8 | 65% | 77 | 29.92 | 0.0 | ||||||
| 07 | 16:55 | NE 9 | 10.00 | Partly Cloudy | SCT042 | 75.2 | 63 | 66% | 77 | 29.92 | 0.0 | ||||||
| 07 | 16:35 | N 9 | 10.00 | Mostly Cloudy | BKN042 | 75.9 | 62.4 | 63% | 78 | 29.93 | 0.0 | ||||||
| 07 | 16:15 | N 12 G 16 | 10.00 | Overcast | OVC040 | 75.6 | 62.6 | 64% | 78 | 29.94 | 0.0 | ||||||
| 07 | 15:55 | NE 8 | 10.00 | Mostly Cloudy | BKN040 BKN046 | 74.8 | 62.4 | 65% | 29.95 | 0.0 | |||||||
| 07 | 15:35 | N 9 | 10.00 | Mostly Cloudy | BKN044 | 74.3 | 61.7 | 65% | 29.95 | 0.0 | |||||||
| 07 | 15:15 | NE 8 | 10.00 | Mostly Cloudy | SCT042 BKN048 | 72.9 | 60.8 | 66% | 29.95 | 0.0 | |||||||
| 07 | 14:35 | NE 10 G 16 | 10.00 | Overcast | OVC046 | 71.1 | 59.9 | 68% | 29.97 | 0.0 | |||||||
| 07 | 14:15 | N 10 | 10.00 | Overcast | OVC042 | 71.2 | 59.5 | 67% | 29.98 | 0.0 | |||||||
| 07 | 13:55 | N 13 | 10.00 | Overcast | SCT028 OVC040 | 69.6 | 59 | 69% | 29.99 | 0.0 | |||||||
| 07 | 13:35 | N 12 | 10.00 | Overcast | BKN028 OVC040 | 69.1 | 59 | 70% | 30 | 0.0 | |||||||
| 07 | 13:15 | N 13 | 10.00 | Overcast | OVC028 | 67.5 | 58.6 | 73% | 30.01 | 0.0 | |||||||
| 07 | 12:55 | N 9 G 16 | 10.00 | Overcast | OVC028 | 67.1 | 58.3 | 67.3 | 60.8 | 73% | 30.01 | 0.0 | |||||
| 07 | 12:15 | N 12 G 16 | 10.00 | Overcast | SCT019 OVC026 | 65.3 | 57.4 | 76% | 30.02 | 0.0 | |||||||
| 07 | 11:55 | N 13 G 17 | 10.00 | Overcast | BKN019 OVC026 | 64.4 | 57.4 | 78% | 30.03 | 0.0 | |||||||
| 07 | 11:35 | N 10 G 17 | 10.00 | Overcast | OVC017 | 63.5 | 57.2 | 80% | 30.03 | 0.0 | |||||||
| 07 | 10:55 | N 10 G 17 | 10.00 | Overcast | OVC015 | 61.9 | 55.9 | 81% | 30.02 | 0.0 | |||||||
| 07 | 10:35 | NE 14 G 17 | 10.00 | Overcast | OVC017 | 63 | 57 | 81% | 30 | 0.0 | |||||||
| 07 | 10:15 | N 16 G 20 | 10.00 | Overcast | OVC017 | 63.1 | 56.7 | 80% | 30 | 0.0 | |||||||
| 07 | 09:55 | N 15 | 10.00 | Overcast | OVC015 | 61.5 | 56.5 | 84% | 30.01 | 0.0 | |||||||
| 07 | 09:35 | N 14 | 10.00 | Overcast | OVC013 | 61 | 56.5 | 85% | 30.02 | 0.0 | |||||||
| 07 | 09:15 | N 9 | 10.00 | Overcast | OVC009 | 60.8 | 57.6 | 89% | 30.02 | 0.0 | |||||||
| 07 | 08:55 | N 13 G 20 | 10.00 | Overcast | OVC009 | 61.2 | 58.6 | 91% | 30.01 | 0.0 | |||||||
| 07 | 08:35 | N 16 G 24 | 10.00 | Overcast | OVC009 | 61.5 | 59 | 92% | 29.98 | 0.0 | |||||||
| 07 | 08:15 | N 12 | 10.00 | Overcast | OVC009 | 61.2 | 59 | 93% | 29.98 | 0.0 | |||||||
| 07 | 07:55 | N 14 G 18 | 10.00 | Overcast | OVC009 | 61.2 | 59 | 93% | 29.99 | 0.0 | |||||||
| 07 | 07:35 | N 10 G 17 | 10.00 | Overcast | OVC011 | 61.5 | 59 | 92% | 30 | 0.0 | |||||||
| 07 | 07:15 | N 8 | 10.00 | Overcast | OVC011 | 61.9 | 59.4 | 92% | 29.99 | 0.0 | |||||||
| 07 | 06:55 | N 7 | 10.00 | Overcast | BKN011 OVC016 | 61.9 | 59 | 63.9 | 61.9 | 90% | 29.99 | 0.0 | |||||
| 07 | 06:35 | N 7 G 20 | 10.00 | Overcast | OVC016 | 62.1 | 59 | 90% | 29.96 | 0.0 | |||||||
| 07 | 05:55 | N 6 | 10.00 | Overcast | OVC018 | 62.2 | 58.6 | 88% | 29.96 | 0.0 | |||||||
| 07 | 05:35 | N 8 | 10.00 | Overcast | OVC020 | 62.6 | 58.5 | 86% | 29.95 | 0.0 | |||||||
| 07 | 05:15 | N 9 | 10.00 | Overcast | OVC020 | 62.6 | 58.6 | 87% | 29.95 | 0.0 | |||||||
| 07 | 04:55 | N 7 | 10.00 | Overcast | OVC020 | 62.6 | 58.5 | 86% | 29.94 | 0.0 | |||||||
| 07 | 04:35 | N 9 | 10.00 | Overcast | OVC020 | 62.6 | 58.3 | 86% | 29.93 | 0.0 | |||||||
| 07 | 04:15 | N 8 | 10.00 | Overcast | OVC020 | 62.6 | 58.5 | 86% | 29.93 | 0.0 | |||||||
| 07 | 03:55 | N 10 | 10.00 | Overcast | OVC020 | 62.4 | 58.1 | 86% | 29.92 | 0.0 | |||||||
| 07 | 03:35 | N 7 | 10.00 | Overcast | OVC020 | 62.6 | 58.3 | 86% | 29.93 | 0.0 | |||||||
| 07 | 03:15 | N 7 | 10.00 | Overcast | OVC020 | 62.6 | 57.7 | 84% | 29.93 | 0.0 | |||||||
| 07 | 02:55 | N 8 | 10.00 | Overcast | OVC020 | 62.6 | 57.6 | 84% | 29.94 | 0.0 | |||||||
| 07 | 02:35 | N 12 | 10.00 | Overcast | OVC020 | 62.6 | 57.4 | 83% | 29.93 | 0.0 | |||||||
| 07 | 02:15 | N 14 G 20 | 10.00 | Overcast | OVC020 | 62.8 | 57.4 | 83% | 29.93 | 0.0 | |||||||
| 07 | 01:55 | N 10 | 10.00 | Overcast | OVC020 | 63.1 | 57.7 | 83% | 29.94 | 0.0 | |||||||
| 07 | 01:35 | N 10 | 10.00 | Overcast | OVC020 | 63.5 | 57.7 | 82% | 29.94 | 0.0 | |||||||
| 07 | 01:15 | N 13 G 18 | 10.00 | Overcast | OVC020 | 63.7 | 58.3 | 83% | 29.94 | 0.0 | |||||||
| 07 | 00:55 | N 8 | 10.00 | Overcast | SCT016 OVC020 | 63.9 | 58.5 | 72.3 | 63.9 | 83% | 29.94 | 0.0 | |||||
| 07 | 00:35 | N 7 | 10.00 | Overcast | OVC020 | 63.9 | 58.3 | 82% | 29.94 | 0.0 | |||||||
| 07 | 00:15 | N 10 | 10.00 | Overcast | OVC020 | 64.4 | 59 | 83% | 29.93 | 0.0 | |||||||
| 06 | 23:35 | N 8 | 10.00 | Overcast | OVC022 | 64.4 | 59 | 83% | 29.93 | 0.0 | |||||||
| 06 | 23:15 | N 8 | 10.00 | Overcast | BKN022 BKN035 OVC041 | 64.6 | 59 | 82% | 29.93 | 0.0 | |||||||
| 06 | 22:55 | N 10 G 16 | 10.00 | Overcast | OVC037 | 64.6 | 59 | 82% | 29.92 | 0.0 | |||||||
| 06 | 22:35 | N 10 G 16 | 10.00 | Overcast | BKN021 OVC035 | 65.3 | 59 | 80% | 29.92 | 0.0 | |||||||
| 06 | 22:15 | N 9 | 10.00 | Overcast | OVC021 | 65.7 | 59.2 | 80% | 29.92 | 0.0 | |||||||
| 06 | 21:55 | N 8 | 10.00 | Overcast | OVC021 | 66.2 | 59.2 | 78% | 29.91 | 0.0 | |||||||
| 06 | 21:35 | N 8 G 18 | 10.00 | Overcast | OVC021 | 66.7 | 59.5 | 78% | 29.9 | 0.0 | |||||||
| 06 | 20:55 | N 10 G 16 | 10.00 | Overcast | OVC023 | 67.6 | 60.1 | 77% | 29.86 | 0.0 | |||||||
| 06 | 20:35 | N 10 | 10.00 | Overcast | OVC023 | 68.2 | 61.5 | 79% | 29.86 | 0.0 | |||||||
| 06 | 20:15 | N 9 | 10.00 | Overcast | OVC023 | 68.9 | 62.2 | 79% | 29.85 | 0.0 | |||||||
| 06 | 19:55 | N 7 G 16 | 10.00 | Overcast | BKN025 OVC030 | 69.6 | 62.2 | 78% | 29.84 | 0.0 | |||||||
| 06 | 19:35 | N 12 G 18 | 10.00 | Mostly Cloudy | BKN022 | 70.3 | 63 | 78% | 29.83 | 0.0 | |||||||
| 06 | 19:15 | N 12 G 16 | 10.00 | Mostly Cloudy | BKN025 BKN031 BKN039 | 71.1 | 64.4 | 80% | 29.82 | 0.0 | |||||||
| 06 | 18:55 | N 12 G 18 | 10.00 | Overcast | BKN025 OVC033 | 72.5 | 64.9 | 85.5 | 72.5 | 77% | 29.81 | 0.0 | |||||
| 06 | 18:35 | N 12 G 22 | 7.00 | Mostly Cloudy | BKN025 | 74.3 | 66.9 | 78% | 29.8 | 0.0 | |||||||
| 06 | 18:15 | Calm | 5.00 | Fair with Haze | CLR | 83.5 | 74.7 | 75% | 91 | 29.78 | 0.0 | ||||||
| 06 | 17:55 | Calm | 5.00 | Fair with Haze | CLR | 83.7 | 74.1 | 73% | 91 | 29.78 | 0.0 | ||||||
| 06 | 17:35 | Calm | 5.00 | Fair with Haze | CLR | 83.5 | 74.3 | 74% | 91 | 29.78 | 0.0 | ||||||
| 06 | 17:15 | SW 3 | 5.00 | Fair with Haze | CLR | 83.3 | 74.1 | 74% | 90 | 29.78 | 0.0 | ||||||
| 06 | 16:55 | SW 5 | 5.00 | Partly Cloudy with Haze | SCT024 | 84.2 | 74.5 | 73% | 92 | 29.78 | 0.0 | ||||||
| 06 | 16:35 | SW 7 | 5.00 | Fair with Haze | CLR | 85.5 | 74.3 | 69% | 94 | 29.77 | 0.0 | ||||||
| 06 | 16:15 | S 6 | 5.00 | Fair with Haze | CLR | 84.6 | 74.1 | 71% | 92 | 29.78 | 0.0 | ||||||
| 06 | 15:55 | SW 3 | 5.00 | Partly Cloudy with Haze | SCT020 SCT043 | 83.5 | 74.3 | 74% | 91 | 29.79 | 0.0 | ||||||
| 06 | 15:35 | S 3 | 5.00 | Partly Cloudy with Haze | SCT022 SCT032 SCT065 | 83.5 | 75.2 | 76% | 91 | 29.79 | 0.0 | ||||||
| 06 | 15:15 | S 3 | 4.00 | Overcast with Haze | SCT017 BKN022 OVC060 | 80.6 | 75.2 | 84% | 86 | 29.79 | 0.0 | ||||||
| 06 | 14:55 | W 3 | 5.00 | Mostly Cloudy with Haze | SCT019 BKN025 BKN043 | 80.8 | 75.2 | 83% | 87 | 29.8 | 0.0 | ||||||
| 06 | 14:35 | S 5 | 4.00 | Overcast with Haze | SCT015 BKN023 OVC044 | 80.6 | 74.8 | 83% | 86 | 29.8 | 0.0 | ||||||
| 06 | 14:15 | SE 6 | 4.00 | Rain | BKN015 BKN026 OVC033 | 78.8 | 75.2 | 89% | 82 | 29.81 | 0.0 | ||||||
| 06 | 13:55 | S 3 | 5.00 | Mostly Cloudy with Haze | SCT015 SCT025 BKN032 | 80.6 | 74.3 | 81% | 86 | 29.81 | 0.0 | ||||||
| 06 | 13:35 | S 7 | 5.00 | Mostly Cloudy with Haze | SCT015 SCT022 BKN033 | 82 | 74.7 | 78% | 88 | 29.81 | 0.0 | ||||||
| 06 | 13:15 | SE 6 | 5.00 | Partly Cloudy with Haze | SCT030 SCT038 SCT055 | 81.7 | 75 | 80% | 88 | 29.83 | 0.0 | ||||||
| 06 | 12:55 | E 5 | 4.00 | Fog/Mist | BKN033 BKN043 | 79.3 | 74.7 | 79.3 | 72.7 | 86% | 83 | 29.84 | 0.0 | ||||
| 06 | 12:35 | SE 6 | 4.00 | Fog/Mist | SCT017 OVC033 | 78.1 | 74.1 | 88% | 81 | 29.85 | 0.0 | ||||||
| 06 | 12:15 | E 3 | 4.00 | Fog/Mist | SCT011 SCT017 BKN033 | 77.4 | 74.5 | 91% | 79 | 29.85 | 0.0 | ||||||
| 06 | 11:55 | E 6 | 4.00 | Fog/Mist | SCT011 BKN020 BKN035 | 78.3 | 73.6 | 86% | 81 | 29.86 | 0.0 | ||||||
| 06 | 11:35 | SE 6 | 5.00 | Fog/Mist | SCT012 BKN018 OVC029 | 78.1 | 73.9 | 87% | 81 | 29.86 | 0.0 | ||||||
| 06 | 11:15 | SE 6 | 5.00 | Fog/Mist | BKN012 OVC016 | 78.3 | 74.1 | 87% | 81 | 29.84 | 0.0 | ||||||
| 06 | 10:55 | SE 7 | 5.00 | Fog/Mist | BKN010 OVC015 | 77.7 | 74.3 | 89% | 80 | 29.84 | 0.0 | ||||||
| 06 | 10:35 | SE 5 | 5.00 | Fog/Mist | BKN010 | 77 | 73.8 | 90% | 78 | 29.84 | 0.0 | ||||||
| Date | Time (cdt) | Wind (mph) | Vis. (mi.) | Weather | Sky Cond. | Air | Dwpt | Max. | Min. | Relative Humidity | Wind Chill (°F) | Heat Index (°F) | altimeter (in) | sea level (mb) | 1 hr | 3 hr | 6 hr |
| 6 hour | |||||||||||||||||
| Temperature (ºF) | Pressure | Precipitation (in) | |||||||||||||||